createdAt,value
2022-11-05T00:00:29.903Z,100831.56
2022-11-05T00:03:15.280Z,100812.34
2022-11-05T00:06:01.371Z,100798.44
2022-11-05T00:08:46.652Z,100813.56
2022-11-05T00:11:18.080Z,100833.94
2022-11-05T00:14:04.022Z,100839.34
2022-11-05T00:16:45.091Z,100852.53
2022-11-05T00:19:13.647Z,100848.94
2022-11-05T00:21:58.965Z,100850.81
2022-11-05T00:24:44.430Z,100845.41
2022-11-05T00:27:12.388Z,100841.00
2022-11-05T00:29:40.130Z,100852.47
2022-11-05T00:32:09.198Z,100811.94
2022-11-05T00:34:37.107Z,100826.88
2022-11-05T00:37:04.741Z,100807.69
2022-11-05T00:39:32.434Z,100824.34
2022-11-05T00:42:17.826Z,100814.75
2022-11-05T00:45:01.991Z,100817.41
2022-11-05T00:47:49.125Z,100821.94
2022-11-05T00:50:16.942Z,100805.28
2022-11-05T00:52:57.183Z,100820.28
2022-11-05T00:55:28.233Z,100800.13
2022-11-05T00:57:57.032Z,100822.19
2022-11-05T01:00:26.947Z,100796.81
2022-11-05T01:02:58.662Z,100793.31
2022-11-05T01:05:27.002Z,100795.13
2022-11-05T01:07:55.132Z,100788.34
2022-11-05T01:10:23.449Z,100797.13
2022-11-05T01:12:51.452Z,100792.00
2022-11-05T01:15:20.190Z,100789.44
2022-11-05T01:17:47.728Z,100778.97
2022-11-05T01:20:17.296Z,100803.81
2022-11-05T01:22:45.006Z,100795.94
2022-11-05T01:25:12.689Z,100810.22
2022-11-05T01:27:40.625Z,100799.75
2022-11-05T01:30:10.093Z,100809.47
2022-11-05T01:32:38.580Z,100797.19
2022-11-05T01:35:07.937Z,100800.00
2022-11-05T01:37:37.116Z,100813.41
2022-11-05T01:40:05.571Z,100817.94
2022-11-05T01:42:34.169Z,100823.31
2022-11-05T01:45:05.135Z,100820.72
2022-11-05T01:47:56.218Z,100816.56
2022-11-05T01:50:31.435Z,100814.09
2022-11-05T01:53:06.696Z,100808.13
2022-11-05T01:55:39.112Z,100826.88
2022-11-05T01:58:10.563Z,100827.13
2022-11-05T02:00:38.986Z,100830.91
2022-11-05T02:03:06.954Z,100838.09
2022-11-05T02:05:35.397Z,100858.50
2022-11-05T02:08:04.798Z,100851.78
2022-11-05T02:10:33.311Z,100869.63
2022-11-05T02:13:01.021Z,100885.59
2022-11-05T02:15:41.082Z,100872.72
2022-11-05T02:18:21.779Z,100891.41
2022-11-05T02:21:01.321Z,100921.47
2022-11-05T02:24:04.734Z,100912.03
2022-11-05T02:27:08.117Z,100923.69
2022-11-05T02:30:04.428Z,100915.94
2022-11-05T02:32:50.205Z,100922.28
2022-11-05T02:35:36.100Z,100922.28
2022-11-05T02:38:09.326Z,100924.25
2022-11-05T02:40:46.865Z,100929.66
2022-11-05T02:43:23.650Z,100927.19
2022-11-05T02:46:01.078Z,100937.94
2022-11-05T02:48:38.187Z,100933.63
2022-11-05T02:51:13.868Z,100947.03
2022-11-05T02:53:48.802Z,100949.78
2022-11-05T02:56:21.375Z,100949.88
2022-11-05T02:58:49.201Z,100951.81
2022-11-05T03:01:17.220Z,100963.47
2022-11-05T03:03:49.259Z,101009.34
2022-11-05T03:06:48.614Z,100996.28
2022-11-05T03:09:46.523Z,101015.75
2022-11-05T03:12:26.797Z,101014.06
2022-11-05T03:15:01.166Z,101015.00
2022-11-05T03:17:37.571Z,101023.03
2022-11-05T03:20:17.526Z,101033.59
2022-11-05T03:22:50.481Z,101041.63
2022-11-05T03:25:22.593Z,101062.75
2022-11-05T03:28:32.327Z,101060.22
2022-11-05T03:31:00.946Z,101040.94
2022-11-05T03:33:32.933Z,101050.63
2022-11-05T03:36:06.854Z,101065.69
2022-11-05T03:38:38.269Z,101036.72
2022-11-05T03:41:09.719Z,101044.72
2022-11-05T03:43:41.432Z,101060.69
2022-11-05T03:46:12.814Z,101058.19
2022-11-05T03:48:45.403Z,101058.19
2022-11-05T03:51:20.562Z,101071.56
2022-11-05T03:53:52.930Z,101076.00
2022-11-05T03:56:28.217Z,101069.06
2022-11-05T03:58:59.092Z,101070.03
2022-11-05T04:01:27.763Z,101097.44
2022-11-05T04:03:55.544Z,101086.13
2022-11-05T04:06:42.278Z,101084.41
2022-11-05T04:09:37.146Z,101072.22
2022-11-05T04:12:22.561Z,101082.03
2022-11-05T04:14:50.255Z,101071.66
2022-11-05T04:17:16.837Z,101101.72
2022-11-05T04:20:03.410Z,101112.31
2022-11-05T04:22:51.975Z,101103.59
2022-11-05T04:25:21.177Z,101132.78
2022-11-05T04:27:49.175Z,101143.38
2022-11-05T04:30:18.358Z,101149.63
2022-11-05T04:33:00.409Z,101165.56
2022-11-05T04:35:29.792Z,101162.94
2022-11-05T04:37:58.825Z,101160.38
2022-11-05T04:40:27.236Z,101141.94
2022-11-05T04:42:55.926Z,101138.56
2022-11-05T04:45:24.350Z,101154.50
2022-11-05T04:47:52.210Z,101127.31
2022-11-05T04:50:20.082Z,101138.84
2022-11-05T04:52:47.691Z,101130.13
2022-11-05T04:55:17.116Z,101134.66
2022-11-05T04:57:45.111Z,101153.22
2022-11-05T05:00:13.212Z,101161.28
2022-11-05T05:02:40.782Z,101171.00
2022-11-05T05:05:08.636Z,101177.25
2022-11-05T05:07:36.438Z,101194.00
2022-11-05T05:10:06.521Z,101188.78
2022-11-05T05:12:36.319Z,101193.19
2022-11-05T05:15:04.728Z,101199.50
2022-11-05T05:17:32.368Z,101203.97
2022-11-05T05:20:17.733Z,101208.38
2022-11-05T05:22:45.417Z,101215.56
2022-11-05T05:25:13.212Z,101234.94
2022-11-05T05:27:42.187Z,101232.34
2022-11-05T05:30:11.236Z,101252.66
2022-11-05T05:32:39.276Z,101239.53
2022-11-05T05:35:07.619Z,101226.41
2022-11-05T05:37:35.345Z,101221.22
2022-11-05T05:40:03.013Z,101235.38
2022-11-05T05:42:30.649Z,101225.75
2022-11-05T05:44:59.654Z,101218.81
2022-11-05T05:47:27.326Z,101222.41
2022-11-05T05:49:54.951Z,101236.53
2022-11-05T05:52:22.723Z,101239.28
2022-11-05T05:54:50.408Z,101243.75
2022-11-05T05:57:18.180Z,101273.72
2022-11-05T05:59:45.829Z,101290.50
2022-11-05T06:02:14.813Z,101284.41
2022-11-05T06:04:42.519Z,101296.78
2022-11-05T06:07:10.157Z,101302.13
2022-11-05T06:09:37.731Z,101330.31
2022-11-05T06:12:06.027Z,101336.56
2022-11-05T06:14:33.819Z,101343.63
2022-11-05T06:17:01.449Z,101356.84
2022-11-05T06:19:30.429Z,101363.06
2022-11-05T06:21:58.174Z,101378.97
2022-11-05T06:24:25.884Z,101393.94
2022-11-05T06:26:53.460Z,101392.25
2022-11-05T06:29:21.196Z,101413.38
2022-11-05T06:31:49.209Z,101411.66
2022-11-05T06:34:17.196Z,101446.84
2022-11-05T06:36:46.293Z,101465.34
2022-11-05T06:39:14.355Z,101445.09
2022-11-05T06:42:17.241Z,101478.53
2022-11-05T06:44:29.789Z,101487.31
2022-11-05T06:46:57.587Z,101484.69
2022-11-05T06:49:25.637Z,101467.94
2022-11-05T06:51:54.611Z,101474.06
2022-11-05T06:54:22.230Z,101485.47
2022-11-05T06:56:49.855Z,101474.88
2022-11-05T06:59:17.559Z,101485.41
2022-11-05T07:01:45.379Z,101469.56
2022-11-05T07:04:13.280Z,101475.66
2022-11-05T07:06:41.184Z,101466.78
2022-11-05T07:09:10.162Z,101464.09
2022-11-05T07:11:37.936Z,101464.00
2022-11-05T07:14:05.678Z,101514.84
2022-11-05T07:16:33.553Z,101490.84
2022-11-05T07:19:01.466Z,101487.78
2022-11-05T07:21:29.566Z,101461.94
2022-11-05T07:23:57.461Z,101409.69
2022-11-05T07:26:31.864Z,101412.78
2022-11-05T07:29:01.910Z,101352.56
2022-11-05T07:31:29.620Z,101300.41
2022-11-05T07:33:59.049Z,101273.88
2022-11-05T07:36:26.817Z,101235.75
2022-11-05T07:38:59.929Z,101219.69
2022-11-05T07:41:29.763Z,101188.69
2022-11-05T07:43:57.400Z,101176.28
2022-11-05T07:46:25.340Z,101207.72
2022-11-05T07:48:53.105Z,101170.50
2022-11-05T07:51:20.784Z,101151.84
2022-11-05T07:53:48.465Z,101155.16
2022-11-05T07:56:16.510Z,101141.69
2022-11-05T07:58:45.443Z,101119.47
2022-11-05T08:01:13.147Z,101117.44
2022-11-05T08:03:40.957Z,101122.47
2022-11-05T08:06:08.796Z,101088.69
2022-11-05T08:08:36.546Z,101061.25
2022-11-05T08:11:05.363Z,101060.28
2022-11-05T08:13:33.420Z,101075.06
2022-11-05T08:16:02.948Z,101061.69
2022-11-05T08:18:32.450Z,101094.94
2022-11-05T08:21:01.175Z,101101.75
2022-11-05T08:23:30.731Z,101089.16
2022-11-05T08:25:58.967Z,101077.38
2022-11-05T08:28:27.173Z,101032.38
2022-11-05T08:30:56.907Z,101046.31
2022-11-05T08:33:27.461Z,101056.88
2022-11-05T08:35:54.981Z,101079.56
2022-11-05T08:38:22.636Z,101089.88
2022-11-05T08:40:56.073Z,101114.31
2022-11-05T08:43:24.297Z,101089.28
2022-11-05T08:45:51.933Z,101082.03
2022-11-05T08:48:20.031Z,101057.47
2022-11-05T08:50:50.498Z,101090.59
2022-11-05T08:53:18.294Z,101067.56
2022-11-05T08:55:47.577Z,101062.38
2022-11-05T08:58:17.260Z,101073.59
2022-11-05T09:00:47.587Z,101069.91
2022-11-05T09:03:15.935Z,101071.50
2022-11-05T09:05:44.183Z,101082.81
2022-11-05T09:08:15.457Z,101069.34
2022-11-05T09:10:43.550Z,101070.09
2022-11-05T09:13:16.847Z,101066.47
2022-11-05T09:15:49.973Z,101075.13
2022-11-05T09:18:19.236Z,101081.00
2022-11-05T09:20:47.304Z,101081.66
2022-11-05T09:23:16.908Z,101099.13
2022-11-05T09:25:45.606Z,101039.03
2022-11-05T09:28:16.802Z,101066.25
2022-11-05T09:30:46.618Z,101067.00
2022-11-05T09:33:15.383Z,101059.75
2022-11-05T09:35:44.008Z,101062.25
2022-11-05T09:38:12.327Z,101049.88
2022-11-05T09:40:44.757Z,101034.69
2022-11-05T09:43:19.030Z,101057.38
2022-11-05T09:45:50.605Z,101028.09
2022-11-05T09:48:25.027Z,101065.91
2022-11-05T09:50:54.654Z,101075.25
2022-11-05T09:53:24.395Z,101061.72
2022-11-05T09:55:56.323Z,101051.63
2022-11-05T09:58:30.498Z,101024.97
2022-11-05T10:00:59.557Z,101022.84
2022-11-05T10:03:31.023Z,100984.84
2022-11-05T10:06:09.878Z,101042.13
2022-11-05T10:08:42.778Z,101016.16
2022-11-05T10:11:16.862Z,101060.06
2022-11-05T10:13:48.344Z,101050.91
2022-11-05T10:16:23.866Z,101040.03
2022-11-05T10:18:55.520Z,101000.22
2022-11-05T10:21:44.180Z,100988.41
2022-11-05T10:24:15.662Z,101007.66
2022-11-05T10:26:47.651Z,101011.81
2022-11-05T10:29:23.702Z,100998.19
2022-11-05T10:31:53.570Z,100975.16
2022-11-05T10:34:23.987Z,101015.53
2022-11-05T10:36:51.823Z,100990.72
2022-11-05T10:39:20.840Z,101021.47
2022-11-05T10:42:09.080Z,100999.97
2022-11-05T10:44:40.830Z,100990.13
2022-11-05T10:47:33.649Z,101042.06
2022-11-05T10:50:03.111Z,100976.19
2022-11-05T10:52:37.660Z,100975.97
2022-11-05T10:55:15.517Z,101012.78
2022-11-05T10:57:44.745Z,100990.34
2022-11-05T11:00:23.877Z,100978.59
2022-11-05T11:02:54.303Z,100925.13
2022-11-05T11:05:26.409Z,100910.81
2022-11-05T11:08:01.730Z,100904.41
2022-11-05T11:10:34.937Z,100882.78
2022-11-05T11:13:04.795Z,100911.16
2022-11-05T11:15:35.149Z,100938.47
2022-11-05T11:18:27.003Z,100885.88
2022-11-05T11:20:54.793Z,100914.75
2022-11-05T11:23:22.833Z,100905.56
2022-11-05T11:25:53.964Z,100867.50
2022-11-05T11:28:26.838Z,100858.53
2022-11-05T11:31:05.018Z,100864.38
2022-11-05T11:33:34.872Z,100818.28
2022-11-05T11:36:06.145Z,100807.28
2022-11-05T11:38:36.537Z,100766.63
2022-11-05T11:41:25.078Z,100717.78
2022-11-05T11:43:58.218Z,100719.34
2022-11-05T11:46:33.957Z,100706.34
2022-11-05T11:49:02.030Z,100750.56
2022-11-05T11:51:36.880Z,100758.44
2022-11-05T11:54:06.023Z,100730.06
2022-11-05T11:56:44.835Z,100738.84
2022-11-05T11:59:40.529Z,100713.31
2022-11-05T12:02:39.193Z,100725.34
2022-11-05T12:05:24.091Z,100681.94
2022-11-05T12:07:54.669Z,100693.25
2022-11-05T12:10:37.284Z,100645.22
2022-11-05T12:13:25.226Z,100707.06
2022-11-05T12:15:56.788Z,100719.09
2022-11-05T12:18:36.807Z,100702.97
2022-11-05T12:21:15.374Z,100598.22
2022-11-05T12:24:08.260Z,100593.66
2022-11-05T12:26:48.004Z,100578.56
2022-11-05T12:29:35.696Z,100549.03
2022-11-05T12:32:33.980Z,100534.81
2022-11-05T12:35:13.413Z,100553.72
2022-11-05T12:37:51.369Z,100534.81
2022-11-05T12:40:35.777Z,100550.69
2022-11-05T12:43:12.227Z,100509.97
2022-11-05T12:45:46.840Z,100536.72
2022-11-05T12:48:47.546Z,100523.28
2022-11-05T12:51:28.777Z,100521.91
2022-11-05T12:54:09.731Z,100459.72
2022-11-05T12:56:41.698Z,100478.94
2022-11-05T12:59:17.574Z,100469.78
2022-11-05T13:01:50.676Z,100490.97
2022-11-05T13:04:31.196Z,100559.81
2022-11-05T13:07:01.912Z,100553.16
2022-11-05T13:09:35.214Z,100597.47
2022-11-05T13:12:07.148Z,100616.69
2022-11-05T13:14:41.540Z,100614.41
2022-11-05T13:17:15.191Z,100629.78
2022-11-05T13:19:51.890Z,100572.63
2022-11-05T13:22:29.021Z,100544.53
2022-11-05T13:25:00.335Z,100555.84
2022-11-05T13:27:44.100Z,100537.81
2022-11-05T13:30:18.191Z,100510.22
2022-11-05T13:32:50.317Z,100505.06
2022-11-05T13:35:26.291Z,100492.03
2022-11-05T13:38:16.972Z,100501.88
2022-11-05T13:41:01.787Z,100494.97
2022-11-05T13:43:45.863Z,100531.84
2022-11-05T13:46:27.256Z,100550.03
2022-11-05T13:49:13.996Z,100558.03
2022-11-05T13:51:53.625Z,100561.50
2022-11-05T13:54:46.979Z,100556.22
2022-11-05T13:57:34.854Z,100556.22
2022-11-05T14:00:11.625Z,100564.31
2022-11-05T14:02:43.953Z,100561.75
2022-11-05T14:05:25.052Z,100531.66
2022-11-05T14:07:55.202Z,100513.81
2022-11-05T14:10:32.373Z,100506.66
2022-11-05T14:13:05.303Z,100483.75
2022-11-05T14:15:33.282Z,100483.63
2022-11-05T14:18:02.732Z,100451.94
2022-11-05T14:20:45.974Z,100460.88
2022-11-05T14:23:52.867Z,100483.19
2022-11-05T14:26:23.941Z,100503.72
2022-11-05T14:29:24.060Z,100509.22
2022-11-05T14:32:10.771Z,100505.94
2022-11-05T14:34:45.302Z,100500.91
2022-11-05T14:37:24.859Z,100502.25
2022-11-05T14:39:55.582Z,100529.31
2022-11-05T14:42:29.165Z,100552.63
2022-11-05T14:45:16.515Z,100551.13
2022-11-05T14:47:51.606Z,100562.13
2022-11-05T14:50:23.132Z,100575.78
2022-11-05T14:52:55.624Z,100563.59
2022-11-05T14:55:34.910Z,100566.66
2022-11-05T14:58:26.727Z,100564.19
2022-11-05T15:00:56.947Z,100560.97
2022-11-05T15:03:42.613Z,100544.63
2022-11-05T15:06:29.694Z,100544.22
2022-11-05T15:09:09.322Z,100550.88
2022-11-05T15:11:40.586Z,100565.50
2022-11-05T15:14:21.277Z,100592.34
2022-11-05T15:16:52.679Z,100605.09
2022-11-05T15:19:27.229Z,100605.44
2022-11-05T15:21:58.376Z,100619.03
2022-11-05T15:24:28.862Z,100610.69
2022-11-05T15:27:04.711Z,100637.53
2022-11-05T15:29:34.196Z,100639.75
2022-11-05T15:32:02.354Z,100638.44
2022-11-05T15:34:32.007Z,100660.91
2022-11-05T15:37:02.663Z,100672.75
2022-11-05T15:39:40.276Z,100684.72
2022-11-05T15:42:14.725Z,100677.19
2022-11-05T15:44:44.210Z,100696.88
2022-11-05T15:47:20.600Z,100708.66
2022-11-05T15:49:51.893Z,100733.53
2022-11-05T15:52:21.972Z,100723.22
2022-11-05T15:55:08.879Z,100748.97
2022-11-05T15:57:40.398Z,100766.94
2022-11-05T16:00:17.741Z,100770.75
2022-11-05T16:02:52.917Z,100771.81
2022-11-05T16:05:21.290Z,100780.94
2022-11-05T16:07:49.714Z,100784.75
2022-11-05T16:10:20.438Z,100757.75
2022-11-05T16:12:49.894Z,100760.72
2022-11-05T16:15:24.172Z,100766.38
2022-11-05T16:17:55.265Z,100799.31
2022-11-05T16:20:27.316Z,100806.50
2022-11-05T16:22:56.655Z,100813.81
2022-11-05T16:25:28.921Z,100804.38
2022-11-05T16:27:58.884Z,100823.06
2022-11-05T16:30:27.032Z,100829.34
2022-11-05T16:32:55.876Z,100819.16
2022-11-05T16:35:28.274Z,100829.94
2022-11-05T16:37:56.188Z,100819.00
2022-11-05T16:40:26.395Z,100813.19
2022-11-05T16:42:55.459Z,100821.56
2022-11-05T16:45:25.895Z,100823.66
2022-11-05T16:47:53.561Z,100831.97
2022-11-05T16:50:25.252Z,100836.78
2022-11-05T16:52:53.215Z,100851.13
2022-11-05T16:55:21.264Z,100867.31
2022-11-05T16:57:52.099Z,100890.38
2022-11-05T17:00:21.480Z,100907.22
2022-11-05T17:02:51.395Z,100901.31
2022-11-05T17:05:22.939Z,100913.75
2022-11-05T17:07:50.846Z,100922.66
2022-11-05T17:10:18.906Z,100944.72
2022-11-05T17:12:47.199Z,100948.34
2022-11-05T17:15:20.866Z,100953.72
2022-11-05T17:17:50.493Z,100970.50
2022-11-05T17:20:27.998Z,100977.63
2022-11-05T17:22:56.177Z,100991.81
2022-11-05T17:25:24.644Z,101013.72
2022-11-05T17:27:52.327Z,101026.84
2022-11-05T17:30:21.205Z,101018.94
2022-11-05T17:32:50.548Z,101012.88
2022-11-05T17:35:18.962Z,101021.59
2022-11-05T17:37:47.042Z,101039.88
2022-11-05T17:40:17.378Z,101045.78
2022-11-05T17:42:45.202Z,101054.44
2022-11-05T17:45:14.138Z,101044.53
2022-11-05T17:47:42.294Z,101029.50
2022-11-05T17:50:14.177Z,101023.25
2022-11-05T17:52:41.976Z,101008.38
2022-11-05T17:55:16.642Z,100989.19
